Time;durP1;ratioP1;P1;durP2;ratioP2;P2;SDS_P1;SDS_P2;PMS_P1;PMS_P2;Temp;Humidity;BMP_temperature;BMP_pressure;BME280_temperature;BME280_humidity;BME280_pressure;Samples;Min_cycle;Max_cycle;Signal;HPM_P1;HPM_P2
2023/07/22 00:00:43;;;;;;;8.70;1.80;;;;;;;16.95;87.46;99785.48;109753;1285;22174;-82
2023/07/22 00:03:33;;;;;;;7.10;1.80;;;;;;;16.87;87.38;99776.15;109774;1285;22211;-82
2023/07/22 00:06:09;;;;;;;7.30;1.60;;;;;;;16.77;87.19;99767.46;109750;1280;22163;-83
2023/07/22 00:08:40;;;;;;;5.70;1.60;;;;;;;16.68;87.27;99769.03;109751;1285;22149;-83
2023/07/22 00:11:11;;;;;;;8.00;1.60;;;;;;;16.60;87.34;99774.42;109744;1279;22186;-83
2023/07/22 00:13:43;;;;;;;5.90;1.40;;;;;;;16.54;87.64;99780.44;109743;1285;22249;-83
2023/07/22 00:16:14;;;;;;;9.60;1.50;;;;;;;16.51;87.75;99787.17;109752;1280;22760;-83
2023/07/22 00:18:45;;;;;;;7.50;1.80;;;;;;;16.46;87.73;99790.58;109748;1280;22453;-82
2023/07/22 00:21:18;;;;;;;6.60;1.60;;;;;;;16.40;87.73;99788.31;109749;1285;22216;-82
2023/07/22 00:23:49;;;;;;;7.80;1.50;;;;;;;16.39;87.64;99782.49;109766;1285;22334;-83
2023/07/22 00:26:20;;;;;;;6.70;1.50;;;;;;;16.35;87.64;99778.84;109761;1283;22631;-83
2023/07/22 00:28:50;;;;;;;7.70;1.60;;;;;;;16.31;87.51;99778.08;109751;1285;22997;-83
2023/07/22 00:31:21;;;;;;;5.60;1.50;;;;;;;16.26;87.61;99776.95;109750;1285;22171;-83
2023/07/22 00:33:52;;;;;;;9.80;1.90;;;;;;;16.22;87.77;99774.34;109766;1280;22923;-83
2023/07/22 00:36:22;;;;;;;7.20;1.60;;;;;;;16.19;87.81;99784.05;109766;1280;22176;-83
2023/07/22 00:38:53;;;;;;;6.60;1.50;;;;;;;16.16;87.98;99801.88;109754;1283;22222;-83
2023/07/22 00:41:24;;;;;;;3.80;1.20;;;;;;;16.17;87.91;99800.34;109759;1285;22705;-83
2023/07/22 00:43:55;;;;;;;5.90;1.50;;;;;;;16.18;87.71;99798.84;109771;1285;23068;-83
2023/07/22 00:46:26;;;;;;;6.80;1.40;;;;;;;16.17;87.68;99807.81;109770;1281;22207;-83
2023/07/22 00:48:57;;;;;;;7.10;1.60;;;;;;;16.15;87.67;99813.61;109770;1285;22252;-83
2023/07/22 00:51:28;;;;;;;9.60;1.60;;;;;;;16.13;87.57;99816.27;109753;1280;22125;-83
2023/07/22 00:53:59;;;;;;;5.50;1.70;;;;;;;16.11;87.79;99815.40;109769;1280;22209;-82
2023/07/22 00:56:32;;;;;;;5.30;1.40;;;;;;;16.11;87.77;99818.99;109738;1283;22929;-82
2023/07/22 00:59:03;;;;;;;11.10;1.90;;;;;;;16.09;87.75;99813.70;109750;1279;23079;-83
2023/07/22 01:01:35;;;;;;;7.40;1.40;;;;;;;16.08;87.70;99812.42;109756;1282;22492;-83
2023/07/22 01:04:08;;;;;;;7.20;1.50;;;;;;;16.05;87.70;99811.56;109769;1285;22977;-82
2023/07/22 01:06:39;;;;;;;4.90;1.40;;;;;;;16.03;87.87;99814.88;109768;1285;23036;-83
2023/07/22 01:09:10;;;;;;;7.00;1.60;;;;;;;16.01;87.79;99809.84;109729;1277;22334;-83
2023/07/22 01:11:41;;;;;;;13.40;1.70;;;;;;;16.00;87.80;99807.06;109767;1281;22193;-83
2023/07/22 01:14:12;;;;;;;6.50;1.60;;;;;;;16.00;88.02;99808.40;109755;1277;22428;-83
2023/07/22 01:16:43;;;;;;;6.70;1.40;;;;;;;15.99;88.02;99803.62;109768;1285;22196;-83
2023/07/22 01:19:19;;;;;;;8.00;1.60;;;;;;;15.96;87.94;99803.38;109741;1285;22204;-83
2023/07/22 01:21:50;;;;;;;7.40;1.50;;;;;;;15.95;88.09;99802.16;109779;1285;22905;-82
2023/07/22 01:24:22;;;;;;;5.50;1.40;;;;;;;15.93;87.98;99799.46;109767;1285;22190;-83
2023/07/22 01:26:52;;;;;;;7.10;1.50;;;;;;;15.91;88.06;99798.66;109782;1285;22201;-83
2023/07/22 01:29:23;;;;;;;4.50;1.20;;;;;;;15.90;87.96;99801.79;109760;1285;22271;-83
2023/07/22 01:31:56;;;;;;;4.30;1.50;;;;;;;15.88;87.89;99803.09;109770;1285;22765;-82
2023/07/22 01:34:27;;;;;;;4.40;1.50;;;;;;;15.83;87.79;99804.02;109759;1283;23047;-83
2023/07/22 01:36:58;;;;;;;7.20;1.60;;;;;;;15.79;87.98;99804.55;109738;1285;22205;-83
2023/07/22 01:39:28;;;;;;;4.80;1.30;;;;;;;15.76;87.78;99810.22;109754;1285;22304;-84
2023/07/22 01:41:59;;;;;;;4.90;1.60;;;;;;;15.74;87.81;99811.36;109753;1280;22724;-82
2023/07/22 01:44:31;;;;;;;5.30;1.20;;;;;;;15.74;87.81;99811.21;109756;1285;22158;-83
2023/07/22 01:47:04;;;;;;;4.30;1.30;;;;;;;15.73;87.95;99812.95;109764;1273;22239;-83
2023/07/22 01:49:35;;;;;;;7.70;1.40;;;;;;;15.71;87.92;99817.42;109768;1285;22222;-83
2023/07/22 01:52:07;;;;;;;6.30;1.40;;;;;;;15.69;88.01;99828.02;109751;1284;22254;-83
2023/07/22 01:54:37;;;;;;;5.90;1.60;;;;;;;15.67;88.04;99833.48;109762;1285;22993;-83
2023/07/22 01:57:09;;;;;;;6.10;1.30;;;;;;;15.65;88.26;99838.20;109766;1285;22762;-82
2023/07/22 01:59:40;;;;;;;7.00;1.60;;;;;;;15.63;88.21;99844.61;109754;1285;22200;-82
2023/07/22 02:02:11;;;;;;;5.10;1.60;;;;;;;15.61;88.29;99846.35;109709;1280;23110;-82
2023/07/22 02:04:42;;;;;;;4.90;1.50;;;;;;;15.58;88.34;99852.11;109789;1281;22317;-82
2023/07/22 02:07:13;;;;;;;4.50;1.40;;;;;;;15.54;88.61;99852.35;109738;1285;22108;-82
2023/07/22 02:09:45;;;;;;;9.60;1.70;;;;;;;15.51;88.78;99850.78;109753;1285;22167;-82
2023/07/22 02:12:16;;;;;;;8.80;1.70;;;;;;;15.49;88.96;99849.94;109761;1280;22916;-82
2023/07/22 02:14:47;;;;;;;6.90;1.90;;;;;;;15.47;88.87;99843.92;109771;1283;22184;-82
2023/07/22 02:17:17;;;;;;;5.70;1.70;;;;;;;15.45;88.79;99852.63;109753;1283;22208;-83
2023/07/22 02:19:49;;;;;;;14.60;2.60;;;;;;;15.41;89.03;99854.77;109773;1280;23563;-82
2023/07/22 02:22:20;;;;;;;7.80;2.10;;;;;;;15.39;88.87;99855.60;109750;1285;22257;-82
2023/07/22 02:24:50;;;;;;;12.90;2.60;;;;;;;15.38;88.93;99855.34;109842;1285;22353;-81
2023/07/22 02:27:21;;;;;;;7.80;1.80;;;;;;;15.37;89.03;99852.58;109851;1283;22972;-80
2023/07/22 02:29:52;;;;;;;6.80;2.00;;;;;;;15.35;88.97;99852.15;109786;1285;23046;-81
2023/07/22 02:32:23;;;;;;;10.10;2.30;;;;;;;15.33;88.95;99858.23;109739;1285;22156;-80
2023/07/22 02:34:54;;;;;;;9.30;2.00;;;;;;;15.33;89.06;99859.48;109749;1285;22157;-80
2023/07/22 02:37:24;;;;;;;8.70;2.40;;;;;;;15.31;89.06;99858.82;109741;1283;22409;-80
2023/07/22 02:39:56;;;;;;;7.80;2.60;;;;;;;15.29;89.19;99860.58;109726;1285;22177;-81
2023/07/22 02:42:27;;;;;;;8.20;2.20;;;;;;;15.27;88.97;99865.34;109729;1282;22228;-80
2023/07/22 02:44:57;;;;;;;5.00;1.80;;;;;;;15.27;89.25;99862.73;109737;1277;22194;-82
2023/07/22 02:47:28;;;;;;;6.70;2.20;;;;;;;15.26;89.36;99861.45;109757;1285;23156;-82
2023/07/22 02:50:00;;;;;;;7.20;2.00;;;;;;;15.25;89.50;99862.89;109769;1282;22193;-82
2023/07/22 02:52:30;;;;;;;9.70;2.60;;;;;;;15.24;89.64;99858.91;109748;1279;22389;-82
2023/07/22 02:55:11;;;;;;;7.40;2.60;;;;;;;15.24;89.57;99857.59;109767;1284;22198;-82
2023/07/22 02:57:42;;;;;;;6.00;2.00;;;;;;;15.25;89.58;99864.48;109775;1277;22182;-81
2023/07/22 03:00:20;;;;;;;7.00;2.20;;;;;;;15.25;89.60;99860.95;109725;1284;22303;-82
2023/07/22 03:02:52;;;;;;;7.60;1.80;;;;;;;15.25;89.74;99862.38;109753;1285;22961;-82
2023/07/22 03:05:25;;;;;;;9.90;2.40;;;;;;;15.25;89.97;99867.44;109740;1285;23045;-81
2023/07/22 03:07:56;;;;;;;8.20;2.60;;;;;;;15.25;90.13;99868.36;109766;1284;22841;-81
2023/07/22 03:10:28;;;;;;;8.40;2.30;;;;;;;15.24;90.19;99873.94;109754;1285;23007;-82
2023/07/22 03:12:59;;;;;;;8.80;2.40;;;;;;;15.22;90.24;99877.52;109754;1279;23369;-81
2023/07/22 03:15:30;;;;;;;9.10;3.00;;;;;;;15.22;90.37;99878.05;109753;1282;22176;-82
2023/07/22 03:18:01;;;;;;;10.10;3.00;;;;;;;15.21;90.61;99884.08;109760;1285;23064;-82
2023/07/22 03:20:32;;;;;;;9.50;2.90;;;;;;;15.21;90.42;99887.34;109734;1285;22266;-82
2023/07/22 03:23:02;;;;;;;9.20;2.60;;;;;;;15.21;90.63;99886.80;109758;1280;22175;-81
2023/07/22 03:25:34;;;;;;;11.80;2.70;;;;;;;15.23;90.75;99882.89;109776;1281;23176;-81
2023/07/22 03:28:07;;;;;;;8.60;3.10;;;;;;;15.23;90.87;99890.00;109773;1285;22205;-81
2023/07/22 03:30:38;;;;;;;12.10;2.50;;;;;;;15.25;91.08;99892.29;109763;1280;22133;-82
2023/07/22 03:33:09;;;;;;;11.40;3.00;;;;;;;15.25;91.27;99889.94;109731;1280;23025;-82
2023/07/22 03:35:39;;;;;;;10.00;3.50;;;;;;;15.27;91.27;99895.14;109747;1285;22258;-82
2023/07/22 03:38:10;;;;;;;9.30;2.80;;;;;;;15.28;91.32;99898.92;109765;1285;22207;-83
2023/07/22 03:40:41;;;;;;;7.90;2.50;;;;;;;15.29;91.47;99901.64;109749;1281;22181;-84
2023/07/22 03:43:12;;;;;;;7.60;2.70;;;;;;;15.30;91.61;99900.61;109753;1281;22194;-84
2023/07/22 03:45:43;;;;;;;6.70;2.50;;;;;;;15.32;91.61;99902.23;109753;1285;22193;-84
2023/07/22 03:48:13;;;;;;;10.90;2.80;;;;;;;15.32;91.82;99900.91;109715;1277;22205;-85
2023/07/22 03:50:44;;;;;;;10.90;3.00;;;;;;;15.34;91.79;99903.34;109731;1280;22578;-84
2023/07/22 03:53:15;;;;;;;10.70;2.60;;;;;;;15.36;91.94;99906.50;109743;1282;22217;-84
2023/07/22 03:55:45;;;;;;;10.60;3.40;;;;;;;15.38;91.81;99905.05;109770;1285;22363;-84
2023/07/22 03:58:16;;;;;;;10.70;2.60;;;;;;;15.40;91.79;99906.36;109757;1285;22214;-84
2023/07/22 04:00:50;;;;;;;8.80;2.70;;;;;;;15.42;91.80;99907.30;109764;1285;22256;-84
2023/07/22 04:03:23;;;;;;;8.60;3.00;;;;;;;15.45;91.80;99910.92;109734;1285;22155;-84
2023/07/22 04:05:58;;;;;;;8.40;3.00;;;;;;;15.45;91.96;99915.28;109774;1285;23352;-84
2023/07/22 04:08:28;;;;;;;8.30;2.50;;;;;;;15.46;92.04;99915.27;109791;1277;22174;-84
2023/07/22 04:11:00;;;;;;;10.10;2.50;;;;;;;15.47;91.76;99920.42;109685;1277;22332;-84
2023/07/22 04:13:31;;;;;;;10.90;2.90;;;;;;;15.48;91.72;99924.35;109761;1279;22158;-84
2023/07/22 04:16:01;;;;;;;9.80;2.40;;;;;;;15.48;91.70;99928.40;109762;1285;22117;-84
2023/07/22 04:18:34;;;;;;;9.80;2.50;;;;;;;15.46;91.66;99924.94;109771;1283;22152;-84
2023/07/22 04:21:05;;;;;;;7.20;2.40;;;;;;;15.44;91.55;99920.49;109741;1281;22199;-84
2023/07/22 04:23:37;;;;;;;7.40;2.30;;;;;;;15.44;91.66;99924.13;109767;1285;22247;-84
2023/07/22 04:26:08;;;;;;;10.10;2.80;;;;;;;15.45;91.82;99919.73;109749;1283;22160;-85
2023/07/22 04:28:39;;;;;;;7.40;2.50;;;;;;;15.47;91.92;99929.39;109763;1280;22311;-85
2023/07/22 04:31:09;;;;;;;6.90;2.10;;;;;;;15.50;91.72;99924.66;109748;1285;22162;-84
2023/07/22 04:33:41;;;;;;;7.20;2.30;;;;;;;15.54;91.88;99926.27;109765;1281;22201;-84
2023/07/22 04:36:12;;;;;;;13.80;2.20;;;;;;;15.56;91.68;99928.56;109724;1283;23015;-84
2023/07/22 04:38:42;;;;;;;7.20;2.40;;;;;;;15.60;91.72;99935.54;109754;1277;22197;-84
2023/07/22 04:41:13;;;;;;;9.10;2.50;;;;;;;15.64;91.91;99936.19;109736;1285;22242;-84
2023/07/22 04:43:44;;;;;;;6.80;2.30;;;;;;;15.68;91.95;99937.98;109761;1281;22424;-84
2023/07/22 04:46:15;;;;;;;6.70;1.90;;;;;;;15.72;91.96;99934.80;109730;1285;23018;-84
2023/07/22 04:48:46;;;;;;;12.50;2.50;;;;;;;15.75;91.89;99935.66;109763;1285;22160;-84
2023/07/22 04:51:16;;;;;;;6.90;2.00;;;;;;;15.80;91.79;99938.83;109761;1285;22198;-84
2023/07/22 04:53:47;;;;;;;8.10;1.70;;;;;;;15.87;91.98;99941.66;109767;1284;22251;-84
2023/07/22 04:56:18;;;;;;;12.20;1.80;;;;;;;15.91;91.67;99939.73;109739;1277;22137;-84
2023/07/22 04:58:49;;;;;;;8.60;1.70;;;;;;;15.96;91.53;99943.98;109755;1283;22997;-84
2023/07/22 05:01:20;;;;;;;5.50;1.50;;;;;;;16.03;91.54;99952.17;109749;1285;22239;-84
2023/07/22 05:03:54;;;;;;;8.10;1.60;;;;;;;16.08;91.27;99951.84;109770;1285;23190;-84
2023/07/22 05:06:25;;;;;;;5.60;1.50;;;;;;;16.13;91.28;99952.46;109764;1282;22823;-84
2023/07/22 05:08:56;;;;;;;5.40;1.50;;;;;;;16.18;91.14;99956.72;109740;1280;22203;-84
2023/07/22 05:11:26;;;;;;;6.30;1.50;;;;;;;16.25;90.80;99958.52;109757;1285;22225;-84
2023/07/22 05:13:57;;;;;;;5.50;1.30;;;;;;;16.31;90.42;99956.30;109740;1277;22311;-84
2023/07/22 05:16:28;;;;;;;7.40;1.30;;;;;;;16.36;89.90;99956.56;109747;1285;22305;-84
2023/07/22 05:18:59;;;;;;;4.20;1.20;;;;;;;16.39;89.62;99960.08;109747;1285;22351;-84
2023/07/22 05:21:30;;;;;;;4.00;1.40;;;;;;;16.45;89.65;99961.75;109752;1285;22203;-84
2023/07/22 05:24:01;;;;;;;6.80;1.40;;;;;;;16.50;89.40;99965.42;109760;1277;22170;-84
2023/07/22 05:26:32;;;;;;;6.40;1.20;;;;;;;16.54;88.95;99964.88;109767;1285;23502;-84
2023/07/22 05:29:02;;;;;;;4.30;1.00;;;;;;;16.59;89.13;99972.27;109760;1285;23262;-84
2023/07/22 05:31:33;;;;;;;4.60;1.30;;;;;;;16.65;88.95;99968.92;109764;1283;22339;-84
2023/07/22 05:34:04;;;;;;;4.90;1.30;;;;;;;16.69;88.34;99974.32;109752;1285;22323;-81
2023/07/22 05:36:35;;;;;;;5.80;1.60;;;;;;;16.71;87.45;99977.98;109732;1282;22804;-82
2023/07/22 05:39:06;;;;;;;5.70;1.20;;;;;;;16.73;87.37;99980.26;109648;1282;22437;-81
2023/07/22 05:41:37;;;;;;;6.10;1.40;;;;;;;16.75;86.97;99982.05;109677;1280;22421;-81
2023/07/22 05:44:08;;;;;;;6.40;1.40;;;;;;;16.78;86.70;99981.66;109710;1283;23005;-80
2023/07/22 05:46:39;;;;;;;7.30;1.40;;;;;;;16.80;86.33;99982.81;109754;1284;22161;-81
2023/07/22 05:49:10;;;;;;;6.10;1.40;;;;;;;16.82;86.09;99987.15;109667;1280;22150;-85
2023/07/22 05:51:41;;;;;;;4.40;1.40;;;;;;;16.86;85.92;99989.21;109717;1279;22293;-80
2023/07/22 05:54:12;;;;;;;4.90;1.30;;;;;;;16.89;85.63;99988.15;109691;1285;22201;-82
2023/07/22 05:56:43;;;;;;;4.00;1.00;;;;;;;16.93;85.42;99992.20;109712;1285;22287;-82
2023/07/22 05:59:14;;;;;;;8.50;1.30;;;;;;;16.96;85.07;99991.35;109523;1277;23112;-84
2023/07/22 06:01:45;;;;;;;7.20;1.50;;;;;;;16.99;84.63;99987.01;109697;1285;22357;-82
2023/07/22 06:04:16;;;;;;;5.00;1.40;;;;;;;17.04;84.46;99985.98;109615;1284;22916;-81
2023/07/22 06:06:47;;;;;;;7.80;1.20;;;;;;;17.10;84.17;99992.95;109486;1280;22737;-82
2023/07/22 06:09:21;;;;;;;6.40;1.20;;;;;;;17.15;84.16;99996.11;107858;1280;22607;-78
2023/07/22 06:11:52;;;;;;;4.60;1.10;;;;;;;17.21;83.69;100002.09;107310;1285;22523;-78
2023/07/22 06:14:23;;;;;;;8.50;1.30;;;;;;;17.26;83.34;100003.73;107292;1285;22670;-79
2023/07/22 06:16:55;;;;;;;4.50;1.30;;;;;;;17.30;83.13;100001.59;107351;1280;22568;-79
2023/07/22 06:19:26;;;;;;;7.80;1.20;;;;;;;17.36;83.47;100000.27;107311;1278;22571;-79
2023/07/22 06:21:57;;;;;;;7.10;1.10;;;;;;;17.46;83.78;100004.40;107274;1278;23167;-79
2023/07/22 06:24:27;;;;;;;3.60;1.20;;;;;;;17.54;83.19;100001.40;107299;1285;22593;-79
2023/07/22 06:26:58;;;;;;;8.90;1.20;;;;;;;17.62;82.85;100006.23;107269;1285;27715;-79
2023/07/22 06:29:29;;;;;;;9.40;1.30;;;;;;;17.69;82.70;100004.80;107322;1283;22663;-79
2023/07/22 06:32:00;;;;;;;5.10;1.10;;;;;;;17.75;82.59;100006.20;107272;1285;25439;-83
2023/07/22 06:34:30;;;;;;;5.50;1.10;;;;;;;17.84;82.46;100003.46;107869;1285;22553;-84
2023/07/22 06:37:01;;;;;;;7.90;1.20;;;;;;;17.91;81.86;100011.27;107789;1278;24998;-82
2023/07/22 06:39:32;;;;;;;8.40;1.50;;;;;;;17.97;80.23;100015.04;107799;1285;22579;-83
2023/07/22 06:42:03;;;;;;;4.00;1.10;;;;;;;17.98;79.64;100016.14;107798;1285;22527;-83
2023/07/22 06:44:34;;;;;;;4.50;1.00;;;;;;;18.01;79.42;100013.73;107853;1285;24234;-84
2023/07/22 06:47:04;;;;;;;8.10;1.00;;;;;;;18.02;78.83;100017.31;107993;1284;22536;-83
2023/07/22 06:49:36;;;;;;;6.10;1.60;;;;;;;18.04;78.52;100016.98;107968;1267;22583;-82
2023/07/22 06:52:09;;;;;;;6.50;1.20;;;;;;;18.08;78.50;100021.30;108352;1283;23671;-86
2023/07/22 06:54:40;;;;;;;4.30;1.00;;;;;;;18.11;78.38;100023.50;107965;1280;22538;-78
2023/07/22 06:57:11;;;;;;;4.70;1.10;;;;;;;18.17;78.01;100024.70;107827;1280;22550;-78
2023/07/22 06:59:41;;;;;;;7.00;1.30;;;;;;;18.21;77.69;100026.08;107339;1285;22959;-78
2023/07/22 07:02:12;;;;;;;6.80;1.10;;;;;;;18.27;77.12;100031.83;108013;1276;22728;-78
2023/07/22 07:04:43;;;;;;;4.70;1.10;;;;;;;18.32;76.63;100038.38;109685;1285;22212;-78
2023/07/22 07:07:14;;;;;;;4.80;1.10;;;;;;;18.37;76.10;100038.73;109692;1285;22911;-78
2023/07/22 07:09:45;;;;;;;4.20;1.20;;;;;;;18.44;76.71;100041.20;109695;1285;23415;-77
2023/07/22 07:12:16;;;;;;;6.30;1.10;;;;;;;18.54;76.94;100042.63;109661;1285;22159;-77
2023/07/22 07:14:47;;;;;;;4.30;1.10;;;;;;;18.57;75.21;100045.38;109638;1282;22277;-77
2023/07/22 07:17:18;;;;;;;4.20;1.10;;;;;;;18.53;74.53;100052.72;109671;1279;22225;-77
2023/07/22 07:19:49;;;;;;;8.00;1.20;;;;;;;18.52;74.65;100051.61;109667;1285;22986;-77
2023/07/22 07:22:19;;;;;;;5.90;1.00;;;;;;;18.57;74.46;100054.72;109713;1285;22155;-78
2023/07/22 07:24:50;;;;;;;3.50;1.10;;;;;;;18.65;74.48;100052.02;109727;1280;23141;-79
2023/07/22 07:27:21;;;;;;;4.20;1.10;;;;;;;18.76;73.96;100060.32;109712;1285;22269;-78
2023/07/22 07:29:52;;;;;;;7.00;1.40;;;;;;;18.85;73.64;100067.30;109706;1285;22145;-79
2023/07/22 07:32:24;;;;;;;3.70;1.20;;;;;;;18.92;72.90;100068.73;109747;1279;23020;-79
2023/07/22 07:34:55;;;;;;;4.40;1.00;;;;;;;18.95;72.41;100067.94;109741;1285;23624;-79
2023/07/22 07:37:26;;;;;;;4.80;1.00;;;;;;;19.00;72.69;100069.50;109753;1282;22958;-79
2023/07/22 07:39:59;;;;;;;6.10;1.30;;;;;;;19.07;72.40;100071.98;109729;1278;22321;-79
2023/07/22 07:42:30;;;;;;;5.00;1.10;;;;;;;19.09;71.55;100077.25;109757;1285;22153;-78
2023/07/22 07:45:01;;;;;;;6.60;1.40;;;;;;;19.08;71.07;100072.75;109757;1276;22864;-79
2023/07/22 07:47:32;;;;;;;3.10;0.90;;;;;;;19.12;71.54;100073.14;109746;1285;22168;-79
2023/07/22 07:50:03;;;;;;;5.50;1.30;;;;;;;19.16;70.44;100077.80;109728;1280;22154;-79
2023/07/22 07:52:33;;;;;;;5.70;1.00;;;;;;;19.19;70.21;100077.34;109730;1285;22213;-79
2023/07/22 07:55:05;;;;;;;4.10;1.00;;;;;;;19.24;70.36;100079.77;109700;1284;22336;-80
2023/07/22 07:57:36;;;;;;;4.10;0.90;;;;;;;19.29;69.71;100082.23;109739;1281;22752;-81
2023/07/22 08:00:09;;;;;;;4.20;1.00;;;;;;;19.29;69.64;100080.48;109517;1273;31828;-79
2023/07/22 08:02:40;;;;;;;6.00;1.10;;;;;;;19.34;70.01;100081.39;109658;1283;22404;-80
2023/07/22 08:05:12;;;;;;;3.40;0.90;;;;;;;19.43;69.19;100084.11;109648;1284;22182;-80
2023/07/22 08:07:43;;;;;;;5.10;1.20;;;;;;;19.51;68.56;100086.74;109722;1284;22191;-79
2023/07/22 08:10:14;;;;;;;7.30;1.10;;;;;;;19.56;68.04;100088.44;109705;1285;22196;-79
2023/07/22 08:12:44;;;;;;;2.80;0.70;;;;;;;19.62;67.89;100096.50;109736;1285;22744;-78
2023/07/22 08:15:15;;;;;;;6.90;1.10;;;;;;;19.64;67.05;100098.21;109690;1283;22207;-78
2023/07/22 08:17:46;;;;;;;5.20;1.00;;;;;;;19.66;66.80;100099.42;109737;1279;22906;-77
2023/07/22 08:20:17;;;;;;;6.50;0.90;;;;;;;19.70;66.40;100097.05;109667;1285;22288;-77
2023/07/22 08:22:48;;;;;;;4.60;1.10;;;;;;;19.74;66.67;100101.61;109745;1282;22182;-78
2023/07/22 08:25:19;;;;;;;5.70;0.90;;;;;;;19.80;66.23;100108.38;109706;1280;22147;-78
2023/07/22 08:27:50;;;;;;;4.80;1.00;;;;;;;19.83;65.93;100107.34;109732;1283;22217;-78
2023/07/22 08:30:21;;;;;;;2.70;0.80;;;;;;;19.92;66.01;100103.81;109693;1285;22220;-78
2023/07/22 08:32:51;;;;;;;4.60;0.80;;;;;;;20.03;65.63;100102.13;109728;1280;22127;-79
2023/07/22 08:35:22;;;;;;;3.40;0.80;;;;;;;20.06;64.59;100104.89;109718;1280;22837;-77
2023/07/22 08:37:53;;;;;;;5.10;1.00;;;;;;;19.99;64.02;100111.95;109692;1276;22382;-77
2023/07/22 08:40:24;;;;;;;3.70;0.80;;;;;;;19.98;64.20;100113.05;109661;1280;22245;-77
2023/07/22 08:42:56;;;;;;;4.60;0.80;;;;;;;20.04;64.09;100113.80;109710;1279;22323;-78
2023/07/22 08:45:32;;;;;;;2.80;0.60;;;;;;;20.14;63.71;100117.80;109705;1283;22933;-77
2023/07/22 08:48:07;;;;;;;2.30;0.60;;;;;;;20.25;63.34;100110.75;109737;1278;22208;-78
2023/07/22 08:50:45;;;;;;;7.80;0.80;;;;;;;20.29;62.43;100113.86;109668;1280;22687;-77
2023/07/22 08:53:16;;;;;;;4.50;0.90;;;;;;;20.30;62.54;100111.52;109676;1278;22206;-77
2023/07/22 08:55:47;;;;;;;3.70;0.70;;;;;;;20.35;62.07;100112.08;109686;1277;22202;-78
2023/07/22 08:58:19;;;;;;;8.40;0.60;;;;;;;20.32;61.69;100111.27;109670;1280;22189;-78
2023/07/22 09:00:50;;;;;;;3.80;0.70;;;;;;;20.27;61.46;100115.64;109713;1274;23294;-77
2023/07/22 09:03:21;;;;;;;2.40;0.70;;;;;;;20.26;61.10;100117.11;109737;1283;22204;-78
2023/07/22 09:05:52;;;;;;;4.80;0.70;;;;;;;20.27;60.68;100120.29;109727;1280;22152;-77
2023/07/22 09:08:24;;;;;;;3.80;0.60;;;;;;;20.29;60.86;100117.05;109714;1280;22180;-77
2023/07/22 09:10:56;;;;;;;9.00;0.80;;;;;;;20.34;60.63;100118.48;109643;1280;22114;-78
2023/07/22 09:13:27;;;;;;;3.90;0.70;;;;;;;20.43;59.81;100117.48;109727;1284;22188;-77
2023/07/22 09:15:59;;;;;;;4.00;0.60;;;;;;;20.51;58.85;100117.00;109705;1280;22804;-78
2023/07/22 09:18:30;;;;;;;2.40;0.60;;;;;;;20.56;58.85;100113.13;109713;1279;22122;-79
2023/07/22 09:21:01;;;;;;;2.70;0.60;;;;;;;20.65;58.62;100117.51;109714;1282;24195;-78
2023/07/22 09:23:36;;;;;;;4.00;0.60;;;;;;;20.75;58.44;100116.46;109714;1283;22642;-77
2023/07/22 09:26:15;;;;;;;5.00;0.80;;;;;;;20.80;56.41;100125.29;109742;1285;22218;-79
2023/07/22 09:28:54;;;;;;;5.20;0.70;;;;;;;20.72;56.33;100121.35;109725;1284;22673;-78
2023/07/22 09:31:26;;;;;;;2.30;0.80;;;;;;;20.66;57.29;100121.90;109715;1283;23016;-79
2023/07/22 09:34:10;;;;;;;3.10;0.50;;;;;;;20.68;56.96;100122.60;109701;1280;22211;-82
2023/07/22 09:36:53;;;;;;;3.50;0.60;;;;;;;20.72;56.57;100123.20;109718;1284;22194;-82
2023/07/22 09:39:24;;;;;;;5.20;0.70;;;;;;;20.77;56.49;100126.98;109671;1285;22149;-82
2023/07/22 09:41:55;;;;;;;4.30;0.70;;;;;;;20.81;56.08;100119.12;109716;1284;22130;-82
2023/07/22 09:44:29;;;;;;;11.30;1.10;;;;;;;20.84;55.30;100123.48;109746;1285;22280;-80
2023/07/22 09:47:06;;;;;;;4.30;0.80;;;;;;;20.89;54.94;100123.25;109751;1283;22335;-80
2023/07/22 09:49:43;;;;;;;4.10;0.90;;;;;;;20.85;54.24;100127.00;109702;1285;22205;-80
2023/07/22 09:52:14;;;;;;;5.90;0.80;;;;;;;20.82;54.71;100126.32;109754;1283;23186;-81
2023/07/22 09:54:51;;;;;;;9.40;1.00;;;;;;;20.86;54.85;100130.86;109754;1280;22190;-80
2023/07/22 09:57:23;;;;;;;3.80;0.80;;;;;;;20.88;54.42;100128.73;109742;1285;22182;-80
2023/07/22 09:59:56;;;;;;;7.90;0.70;;;;;;;20.90;53.97;100129.58;109725;1283;22402;-79
2023/07/22 10:02:27;;;;;;;8.10;0.80;;;;;;;20.92;53.72;100128.23;109691;1270;22169;-80
2023/07/22 10:05:03;;;;;;;3.50;0.70;;;;;;;20.90;53.05;100126.98;109715;1279;23052;-79
2023/07/22 10:07:36;;;;;;;6.20;0.90;;;;;;;20.83;53.52;100123.65;109744;1281;22335;-79
2023/07/22 10:10:09;;;;;;;4.00;0.70;;;;;;;20.87;53.39;100126.90;109673;1285;22208;-80
2023/07/22 10:12:40;;;;;;;4.30;0.80;;;;;;;20.90;53.33;100129.35;109743;1285;22195;-80
2023/07/22 10:15:13;;;;;;;8.40;1.00;;;;;;;20.99;53.27;100126.94;109646;1280;22128;-79
2023/07/22 10:17:45;;;;;;;4.00;0.90;;;;;;;21.11;52.75;100128.04;109734;1283;23067;-80
2023/07/22 10:20:16;;;;;;;5.80;0.90;;;;;;;21.20;51.78;100124.14;109681;1285;22219;-79
2023/07/22 10:22:47;;;;;;;4.50;0.90;;;;;;;21.27;51.98;100129.31;109709;1278;22208;-79
2023/07/22 10:25:20;;;;;;;5.60;0.80;;;;;;;21.28;51.61;100129.09;109714;1280;22190;-79
2023/07/22 10:27:52;;;;;;;3.30;0.90;;;;;;;21.21;51.88;100129.69;109728;1278;22186;-79
2023/07/22 10:30:23;;;;;;;4.50;0.70;;;;;;;21.21;51.40;100128.85;109710;1285;22165;-80
2023/07/22 10:32:54;;;;;;;5.30;0.90;;;;;;;21.29;51.76;100123.91;109757;1279;22207;-80
2023/07/22 10:35:41;;;;;;;3.70;1.00;;;;;;;21.40;51.96;100122.83;109747;1285;22176;-79
2023/07/22 10:38:14;;;;;;;4.10;0.80;;;;;;;21.57;51.12;100121.64;109734;1285;22173;-79
2023/07/22 10:40:53;;;;;;;4.10;0.90;;;;;;;21.60;50.63;100124.88;109727;1279;22156;-79
2023/07/22 10:43:28;;;;;;;3.70;0.70;;;;;;;21.59;50.46;100130.01;109714;1285;22159;-79
2023/07/22 10:46:05;;;;;;;7.60;0.80;;;;;;;21.57;49.49;100129.07;109727;1278;22791;-79
2023/07/22 10:48:38;;;;;;;6.80;0.80;;;;;;;21.57;49.33;100126.85;109742;1278;22331;-79
2023/07/22 10:51:21;;;;;;;;;;;;;;;;;;;;;
2023/07/22 10:53:51;;;;;;;3.10;0.70;;;;;;;21.52;48.91;100136.80;109693;1279;22250;-83
2023/07/22 10:56:24;;;;;;;6.00;0.90;;;;;;;21.45;48.84;100143.49;109725;1285;22659;-84
2023/07/22 10:59:03;;;;;;;3.10;0.70;;;;;;;21.39;48.95;100139.64;109751;1285;22334;-83
2023/07/22 11:01:39;;;;;;;6.90;0.80;;;;;;;21.40;49.31;100138.70;109726;1280;22361;-83
2023/07/22 11:04:31;;;;;;;5.80;0.90;;;;;;;21.49;49.43;100140.55;109724;1284;22195;-83
2023/07/22 11:07:04;;;;;;;4.80;0.70;;;;;;;21.60;48.53;100134.02;109745;1283;22229;-84
2023/07/22 11:09:46;;;;;;;4.20;1.10;;;;;;;21.64;48.45;100134.64;109764;1285;22972;-83
2023/07/22 11:12:20;;;;;;;5.10;0.70;;;;;;;21.66;48.24;100134.28;109738;1283;22329;-83
2023/07/22 11:14:53;;;;;;;3.20;0.70;;;;;;;21.68;47.86;100133.46;109786;1277;22248;-82
2023/07/22 11:17:33;;;;;;;3.80;0.80;;;;;;;21.79;47.86;100133.53;105662;1284;5415042;-83
2023/07/22 11:20:13;;;;;;;4.70;0.70;;;;;;;21.95;47.16;100135.77;109785;1285;22184;-86
2023/07/22 11:22:44;;;;;;;4.60;0.80;;;;;;;22.05;46.30;100136.10;109803;1285;22231;-86
2023/07/22 11:25:21;;;;;;;7.10;1.00;;;;;;;22.10;46.15;100139.20;109768;1280;22321;-86
2023/07/22 11:27:52;;;;;;;26.40;12.80;;;;;;;22.07;46.38;100143.92;109820;1280;22942;-86
2023/07/22 11:30:25;;;;;;;47.20;21.50;;;;;;;22.04;46.18;100139.33;109783;1273;22207;-86
2023/07/22 11:33:00;;;;;;;89.70;54.60;;;;;;;22.03;45.65;100133.98;109827;1278;22330;-86
2023/07/22 11:35:31;;;;;;;24.70;10.50;;;;;;;22.07;46.00;100131.09;109823;1285;22148;-86
2023/07/22 11:38:05;;;;;;;7.90;1.70;;;;;;;22.13;45.05;100132.55;109835;1270;22341;-86
2023/07/22 11:40:39;;;;;;;10.50;2.30;;;;;;;22.19;45.26;100123.17;109839;1280;22235;-86
2023/07/22 11:43:10;;;;;;;8.00;1.10;;;;;;;22.29;44.95;100124.16;109832;1273;22166;-85